Time;durP1;ratioP1;P1;durP2;ratioP2;P2;SDS_P1;SDS_P2;PMS_P1;PMS_P2;Temp;Humidity;BMP_temperature;BMP_pressure;BME280_temperature;BME280_humidity;BME280_pressure;Samples;Min_cycle;Max_cycle;Signal;HPM_P1;HPM_P2
2023/12/13 00:01:38;;;;;;;29.08;16.88;;;5.10;99.90;;;;;;5114589;28;20049;-64
2023/12/13 00:04:04;;;;;;;33.20;17.02;;;5.10;99.90;;;;;;5114510;28;20366;-64
2023/12/13 00:06:30;;;;;;;26.65;16.63;;;5.10;99.90;;;;;;5115938;28;20023;-64
2023/12/13 00:08:55;;;;;;;25.92;16.50;;;5.10;99.90;;;;;;5115755;28;20030;-64
2023/12/13 00:11:21;;;;;;;28.30;17.50;;;5.10;99.90;;;;;;5115968;28;20095;-64
2023/12/13 00:13:47;;;;;;;25.23;16.83;;;5.10;99.90;;;;;;5115295;28;20029;-63
2023/12/13 00:16:12;;;;;;;29.42;17.02;;;5.00;99.90;;;;;;5114301;28;20028;-63
2023/12/13 00:18:38;;;;;;;34.45;20.95;;;5.00;99.90;;;;;;5114214;28;20030;-63
2023/12/13 00:21:04;;;;;;;31.05;19.48;;;5.00;99.90;;;;;;5115506;28;20035;-63
2023/12/13 00:23:30;;;;;;;34.30;21.02;;;5.00;99.90;;;;;;5115176;28;20024;-63
2023/12/13 00:25:55;;;;;;;36.53;22.35;;;5.00;99.90;;;;;;5115100;28;20042;-63
2023/12/13 00:28:21;;;;;;;34.08;21.10;;;5.00;99.90;;;;;;5115175;28;20020;-63
2023/12/13 00:30:46;;;;;;;38.83;24.65;;;5.00;99.90;;;;;;5115275;28;20032;-64
2023/12/13 00:33:12;;;;;;;38.38;24.77;;;5.00;99.90;;;;;;5113974;28;20034;-63
2023/12/13 00:35:38;;;;;;;35.45;22.58;;;5.00;99.90;;;;;;5114643;28;20046;-63
2023/12/13 00:38:04;;;;;;;39.35;23.23;;;5.00;99.90;;;;;;5115146;28;20031;-63
2023/12/13 00:40:30;;;;;;;37.03;22.75;;;5.00;99.90;;;;;;5115152;28;20073;-63
2023/12/13 00:42:56;;;;;;;37.38;23.13;;;5.10;99.90;;;;;;5115134;28;20376;-63
2023/12/13 00:45:22;;;;;;;37.47;23.90;;;5.00;99.90;;;;;;5115062;28;20028;-63
2023/12/13 00:47:48;;;;;;;36.40;23.10;;;5.00;99.90;;;;;;5113613;28;20130;-63
2023/12/13 00:50:13;;;;;;;40.90;24.38;;;5.00;99.90;;;;;;5115235;28;20073;-63
2023/12/13 00:52:39;;;;;;;43.33;23.55;;;5.00;99.90;;;;;;5114948;28;20019;-63
2023/12/13 00:55:05;;;;;;;38.85;24.30;;;5.00;99.90;;;;;;5114559;28;20471;-63
2023/12/13 00:57:31;;;;;;;39.35;25.05;;;5.00;99.90;;;;;;5114580;28;20031;-63
2023/12/13 00:59:57;;;;;;;43.17;24.90;;;5.00;99.90;;;;;;5115036;28;20031;-63
2023/12/13 01:02:22;;;;;;;43.28;27.75;;;5.00;99.90;;;;;;5114445;28;20393;-64
2023/12/13 01:04:48;;;;;;;41.25;24.30;;;5.00;99.90;;;;;;5114866;27;20016;-63
2023/12/13 01:07:14;;;;;;;39.40;26.20;;;5.00;99.90;;;;;;5114556;28;20042;-63
2023/12/13 01:09:40;;;;;;;43.25;26.50;;;5.00;99.90;;;;;;5114914;28;20024;-63
2023/12/13 01:12:06;;;;;;;40.90;26.25;;;5.00;99.90;;;;;;5114511;28;20024;-63
2023/12/13 01:14:33;;;;;;;43.95;27.52;;;5.00;99.90;;;;;;5114739;28;20047;-63
2023/12/13 01:16:59;;;;;;;43.63;23.80;;;5.00;99.90;;;;;;5114568;28;20059;-63
2023/12/13 01:19:26;;;;;;;38.60;24.17;;;5.00;99.90;;;;;;5114485;28;20076;-63
2023/12/13 01:21:51;;;;;;;41.70;24.42;;;5.00;99.90;;;;;;5113143;28;20051;-64
2023/12/13 01:24:17;;;;;;;35.22;23.05;;;5.00;99.90;;;;;;5114113;28;20090;-63
2023/12/13 01:26:43;;;;;;;36.03;23.02;;;5.00;99.90;;;;;;5114431;28;20027;-63
2023/12/13 01:29:09;;;;;;;42.10;24.77;;;5.00;99.90;;;;;;5113098;28;20449;-63
2023/12/13 01:31:35;;;;;;;46.30;25.85;;;5.00;99.90;;;;;;5114355;28;20104;-63
2023/12/13 01:34:04;;;;;;;40.15;24.75;;;5.00;99.90;;;;;;5114572;28;20412;-64
2023/12/13 01:36:30;;;;;;;45.50;27.30;;;5.00;99.90;;;;;;5114355;28;20035;-63
2023/12/13 01:38:55;;;;;;;40.97;25.92;;;5.00;99.90;;;;;;5112875;28;20077;-63
2023/12/13 01:41:21;;;;;;;36.28;24.00;;;5.00;99.90;;;;;;5114162;28;20035;-63
2023/12/13 01:43:47;;;;;;;40.22;25.35;;;4.90;99.90;;;;;;5112932;28;20381;-63
2023/12/13 01:46:15;;;;;;;44.45;25.35;;;4.90;99.90;;;;;;5114100;28;20027;-63
2023/12/13 01:48:42;;;;;;;34.67;26.10;;;5.00;99.90;;;;;;5112837;28;20026;-63
2023/12/13 01:51:08;;;;;;;40.80;24.73;;;4.90;99.90;;;;;;5114328;28;20031;-63
2023/12/13 01:53:36;;;;;;;45.35;25.90;;;4.90;99.90;;;;;;5112860;28;20028;-64
2023/12/13 01:56:07;;;;;;;41.88;25.08;;;4.90;99.90;;;;;;5114038;28;20379;-64
2023/12/13 01:58:38;;;;;;;42.53;25.92;;;4.90;99.90;;;;;;5114341;28;20534;-63
2023/12/13 02:01:06;;;;;;;43.78;25.77;;;4.90;99.90;;;;;;5113031;28;20493;-63
2023/12/13 02:03:33;;;;;;;42.28;24.15;;;4.90;99.90;;;;;;5112685;28;20468;-64
2023/12/13 02:06:01;;;;;;;42.58;24.63;;;5.00;99.90;;;;;;5112629;28;20483;-63
2023/12/13 02:08:27;;;;;;;41.08;25.05;;;4.90;99.90;;;;;;5114075;28;20070;-64
2023/12/13 02:10:53;;;;;;;36.50;24.30;;;4.90;99.90;;;;;;5113995;28;20046;-63
2023/12/13 02:13:19;;;;;;;40.80;24.73;;;4.90;99.90;;;;;;5114207;28;20023;-64
2023/12/13 02:15:45;;;;;;;46.20;25.30;;;4.90;99.90;;;;;;5114517;28;20024;-72
2023/12/13 02:18:11;;;;;;;40.17;24.73;;;4.90;99.90;;;;;;5116396;28;20024;-64
2023/12/13 02:20:37;;;;;;;38.33;25.00;;;4.90;99.90;;;;;;5115442;28;20114;-64
2023/12/13 02:23:02;;;;;;;53.58;27.92;;;4.90;99.90;;;;;;5116820;28;20063;-65
2023/12/13 02:25:42;;;;;;;46.97;28.55;;;4.90;99.90;;;;;;5114579;28;20138;-63
2023/12/13 02:28:09;;;;;;;38.85;25.00;;;4.90;99.90;;;;;;5114012;28;20059;-63
2023/12/13 02:30:34;;;;;;;42.65;25.98;;;4.90;99.90;;;;;;5112498;28;20064;-63
2023/12/13 02:33:00;;;;;;;44.22;24.95;;;4.90;99.90;;;;;;5115128;28;20106;-65
2023/12/13 02:35:26;;;;;;;40.75;25.38;;;4.90;99.90;;;;;;5112699;28;20399;-63
2023/12/13 02:37:52;;;;;;;39.28;24.45;;;4.90;99.90;;;;;;5112452;28;20483;-63
2023/12/13 02:40:18;;;;;;;39.85;25.35;;;4.80;99.90;;;;;;5112633;28;20470;-63
2023/12/13 02:42:44;;;;;;;39.92;25.35;;;4.80;99.90;;;;;;5113321;28;20392;-63
2023/12/13 02:45:12;;;;;;;44.42;25.55;;;4.80;99.90;;;;;;5113666;28;20023;-63
2023/12/13 02:47:41;;;;;;;47.17;23.90;;;4.80;99.90;;;;;;5113575;28;20350;-63
2023/12/13 02:50:12;;;;;;;38.15;24.10;;;4.80;99.90;;;;;;5113584;28;20028;-63
2023/12/13 02:52:38;;;;;;;41.53;24.55;;;4.80;99.90;;;;;;5116826;28;20034;-64
2023/12/13 02:55:05;;;;;;;47.92;25.15;;;4.80;99.90;;;;;;5118484;28;20115;-64
2023/12/13 02:57:31;;;;;;;41.55;24.70;;;4.80;99.90;;;;;;5118147;28;20027;-66
2023/12/13 02:59:57;;;;;;;40.88;23.13;;;4.80;99.90;;;;;;5117554;28;20034;-63
2023/12/13 03:02:24;;;;;;;42.33;25.00;;;4.80;99.90;;;;;;5115834;28;20023;-63
2023/12/13 03:04:49;;;;;;;44.50;25.33;;;4.80;99.90;;;;;;5115894;28;20094;-63
2023/12/13 03:07:15;;;;;;;47.15;28.88;;;4.80;99.90;;;;;;5117077;28;20033;-63
2023/12/13 03:09:40;;;;;;;43.03;26.10;;;4.80;99.90;;;;;;5116901;28;20032;-63
2023/12/13 03:12:09;;;;;;;37.35;24.10;;;4.80;99.90;;;;;;5116820;28;20023;-63
2023/12/13 03:14:35;;;;;;;33.25;23.02;;;4.80;99.90;;;;;;5116835;28;20027;-63
2023/12/13 03:17:00;;;;;;;39.92;23.23;;;4.80;99.90;;;;;;5115542;28;20038;-63
2023/12/13 03:19:26;;;;;;;36.88;23.23;;;4.80;99.90;;;;;;5116745;28;20019;-63
2023/12/13 03:21:52;;;;;;;35.42;22.67;;;4.80;99.90;;;;;;5116999;28;20028;-64
2023/12/13 03:24:17;;;;;;;37.67;23.00;;;4.80;99.90;;;;;;5116616;28;20039;-63
2023/12/13 03:26:43;;;;;;;38.38;23.85;;;4.80;99.90;;;;;;5116679;28;20474;-63
2023/12/13 03:29:09;;;;;;;38.50;24.17;;;4.80;99.90;;;;;;5116558;28;20055;-63
2023/12/13 03:31:34;;;;;;;37.17;24.15;;;4.80;99.90;;;;;;5116493;28;20027;-63
2023/12/13 03:34:00;;;;;;;47.03;25.35;;;4.70;99.90;;;;;;5116799;28;20030;-63
2023/12/13 03:36:27;;;;;;;45.05;25.05;;;4.70;99.90;;;;;;5116373;28;20035;-63
2023/12/13 03:38:53;;;;;;;35.00;21.75;;;4.70;99.90;;;;;;5114799;28;20128;-63
2023/12/13 03:41:19;;;;;;;39.05;22.92;;;4.70;99.90;;;;;;5116430;28;20066;-63
2023/12/13 03:43:44;;;;;;;40.80;23.52;;;4.70;99.90;;;;;;5114975;28;20409;-63
2023/12/13 03:46:10;;;;;;;45.83;23.30;;;4.70;99.90;;;;;;5115924;28;20034;-63
2023/12/13 03:48:36;;;;;;;44.65;24.42;;;4.70;99.90;;;;;;5114940;28;20027;-63
2023/12/13 03:51:02;;;;;;;44.10;23.98;;;4.70;99.90;;;;;;5116209;27;20020;-63
2023/12/13 03:53:28;;;;;;;42.50;24.80;;;4.80;99.90;;;;;;5114771;28;20449;-63
2023/12/13 03:55:54;;;;;;;42.05;24.92;;;4.70;99.90;;;;;;5114698;28;20028;-63
2023/12/13 03:58:19;;;;;;;39.17;23.90;;;4.70;99.90;;;;;;5114739;28;20030;-63
2023/12/13 04:00:45;;;;;;;38.38;24.58;;;4.70;99.90;;;;;;5115946;28;20097;-63
2023/12/13 04:03:10;;;;;;;42.60;24.80;;;4.70;99.90;;;;;;5115413;28;20027;-63
2023/12/13 04:05:36;;;;;;;39.35;24.08;;;4.70;99.90;;;;;;5115804;28;20469;-63
2023/12/13 04:08:02;;;;;;;41.45;25.00;;;4.80;99.90;;;;;;5114817;28;20028;-63
2023/12/13 04:10:27;;;;;;;46.80;25.75;;;4.70;99.90;;;;;;5115791;28;20342;-63
2023/12/13 04:12:53;;;;;;;45.53;25.15;;;4.80;99.90;;;;;;5115718;28;20472;-63
2023/12/13 04:15:19;;;;;;;42.08;25.15;;;4.70;99.90;;;;;;5114298;28;20028;-63
2023/12/13 04:17:44;;;;;;;44.47;24.83;;;4.70;99.90;;;;;;5114797;28;20357;-63
2023/12/13 04:20:10;;;;;;;43.90;24.85;;;4.70;99.90;;;;;;5115246;28;20384;-63
2023/12/13 04:22:36;;;;;;;42.40;25.13;;;4.80;99.90;;;;;;5115676;28;20020;-63
2023/12/13 04:25:02;;;;;;;40.72;24.40;;;4.70;99.90;;;;;;5115253;28;20047;-63
2023/12/13 04:27:28;;;;;;;45.70;26.10;;;4.80;99.90;;;;;;5115425;28;20039;-63
2023/12/13 04:29:53;;;;;;;45.17;23.45;;;4.70;99.90;;;;;;5114106;28;20483;-63
2023/12/13 04:32:19;;;;;;;51.78;25.42;;;4.70;99.90;;;;;;5114297;28;20053;-63
2023/12/13 04:34:45;;;;;;;46.78;25.25;;;4.70;99.90;;;;;;5115218;28;20028;-63
2023/12/13 04:37:10;;;;;;;47.88;24.98;;;4.70;99.90;;;;;;5113969;28;20035;-63
2023/12/13 04:39:36;;;;;;;45.10;25.25;;;4.70;99.90;;;;;;5115564;28;20032;-63
2023/12/13 04:42:03;;;;;;;43.55;24.13;;;4.70;99.90;;;;;;5113823;28;20026;-64
2023/12/13 04:44:30;;;;;;;39.50;24.20;;;4.70;99.90;;;;;;5115144;28;20052;-63
2023/12/13 04:46:59;;;;;;;44.03;25.65;;;4.70;99.90;;;;;;5115022;28;20063;-63
2023/12/13 04:49:25;;;;;;;44.53;24.73;;;4.70;99.90;;;;;;5113824;28;20034;-63
2023/12/13 04:51:51;;;;;;;49.40;25.52;;;4.70;99.90;;;;;;5113663;28;20028;-63
2023/12/13 04:54:16;;;;;;;44.58;25.45;;;4.70;99.90;;;;;;5113668;28;20072;-63
2023/12/13 04:56:43;;;;;;;47.75;26.90;;;4.70;99.90;;;;;;5114631;28;20032;-63
2023/12/13 04:59:08;;;;;;;56.20;27.95;;;4.70;99.90;;;;;;5115153;28;20032;-63
2023/12/13 05:01:34;;;;;;;48.17;26.42;;;4.70;99.90;;;;;;5114778;28;20456;-63
2023/12/13 05:04:00;;;;;;;44.83;26.20;;;4.60;99.90;;;;;;5113063;28;20030;-63
2023/12/13 05:06:25;;;;;;;45.38;27.10;;;4.70;99.90;;;;;;5113908;28;20035;-63
2023/12/13 05:08:51;;;;;;;55.78;28.33;;;4.70;99.90;;;;;;5113391;28;20408;-63
2023/12/13 05:11:17;;;;;;;50.45;27.02;;;4.70;99.90;;;;;;5115059;28;20040;-63
2023/12/13 05:13:42;;;;;;;48.58;26.25;;;4.70;99.90;;;;;;5114142;28;20020;-62
2023/12/13 05:16:08;;;;;;;49.38;26.48;;;4.70;99.90;;;;;;5113105;28;20489;-62
2023/12/13 05:18:34;;;;;;;41.35;24.23;;;4.70;99.90;;;;;;5113253;28;20032;-63
2023/12/13 05:21:01;;;;;;;42.28;23.40;;;4.70;99.90;;;;;;5113259;28;20023;-63
2023/12/13 05:23:27;;;;;;;51.58;25.05;;;4.60;99.90;;;;;;5114445;28;20028;-63
2023/12/13 05:25:53;;;;;;;49.20;25.67;;;4.60;99.90;;;;;;5113444;28;20097;-63
2023/12/13 05:28:19;;;;;;;41.47;23.58;;;4.60;99.90;;;;;;5114748;28;20027;-64
2023/12/13 05:30:45;;;;;;;56.95;28.55;;;4.60;99.90;;;;;;5115629;28;20088;-65
2023/12/13 05:33:10;;;;;;;50.33;27.52;;;4.60;99.90;;;;;;5115342;28;20053;-63
2023/12/13 05:35:36;;;;;;;47.42;25.90;;;4.60;99.90;;;;;;5114671;28;20028;-63
2023/12/13 05:38:02;;;;;;;51.65;26.80;;;4.50;99.90;;;;;;5114003;28;20488;-63
2023/12/13 05:40:27;;;;;;;57.90;28.35;;;4.50;99.90;;;;;;5113248;28;20028;-64
2023/12/13 05:42:54;;;;;;;56.72;28.13;;;4.50;99.90;;;;;;5114761;28;20030;-64
2023/12/13 05:45:20;;;;;;;53.45;27.67;;;4.50;99.90;;;;;;5111805;28;20077;-64
2023/12/13 05:47:46;;;;;;;54.95;27.27;;;4.50;99.90;;;;;;5114891;28;20031;-65
2023/12/13 05:50:11;;;;;;;51.83;27.55;;;4.50;99.90;;;;;;5114607;28;20072;-62
2023/12/13 05:52:38;;;;;;;53.83;25.25;;;4.50;99.90;;;;;;5113165;28;20028;-64
2023/12/13 05:55:09;;;;;;;47.60;27.98;;;4.50;99.90;;;;;;5112956;28;20114;-63
2023/12/13 05:57:35;;;;;;;50.20;26.73;;;4.50;99.90;;;;;;5113086;28;20490;-64
2023/12/13 06:00:01;;;;;;;47.38;26.90;;;4.50;99.90;;;;;;5114351;28;20020;-63
2023/12/13 06:02:27;;;;;;;57.35;28.83;;;4.50;99.90;;;;;;5114214;28;20019;-63
2023/12/13 06:04:53;;;;;;;58.95;29.70;;;4.50;99.90;;;;;;5114043;28;20094;-63
2023/12/13 06:07:18;;;;;;;57.15;27.55;;;4.50;99.90;;;;;;5112349;28;20400;-63
2023/12/13 06:09:44;;;;;;;63.88;31.25;;;4.50;99.90;;;;;;5114248;28;20077;-63
2023/12/13 06:12:11;;;;;;;51.28;29.25;;;4.60;99.90;;;;;;5114391;28;20102;-64
2023/12/13 06:14:37;;;;;;;57.83;30.23;;;4.60;99.90;;;;;;5112724;28;20023;-63
2023/12/13 06:17:03;;;;;;;55.45;29.30;;;4.50;99.90;;;;;;5114306;28;20134;-63
2023/12/13 06:19:29;;;;;;;58.47;29.33;;;4.50;99.90;;;;;;5112724;28;20024;-64
2023/12/13 06:21:56;;;;;;;58.90;30.25;;;4.50;99.90;;;;;;5113920;28;20016;-63
2023/12/13 06:24:22;;;;;;;54.75;29.15;;;4.60;99.90;;;;;;5113773;28;20501;-64
2023/12/13 06:26:48;;;;;;;58.88;29.20;;;4.60;99.90;;;;;;5117280;28;20024;-63
2023/12/13 06:29:14;;;;;;;66.28;31.73;;;4.60;99.90;;;;;;5117741;28;20480;-64
2023/12/13 06:31:39;;;;;;;67.28;31.92;;;4.60;99.90;;;;;;5116203;28;20020;-64
2023/12/13 06:34:05;;;;;;;75.72;34.03;;;4.60;99.90;;;;;;5117974;28;20027;-63
2023/12/13 06:36:31;;;;;;;56.20;29.77;;;4.60;99.90;;;;;;5117269;28;20036;-63
2023/12/13 06:38:56;;;;;;;61.22;29.13;;;4.60;99.90;;;;;;5117868;28;20059;-63
2023/12/13 06:41:22;;;;;;;63.97;30.50;;;4.60;99.90;;;;;;5117462;28;20476;-64
2023/12/13 06:43:48;;;;;;;57.80;28.38;;;4.60;99.90;;;;;;5117183;28;20354;-63
2023/12/13 06:46:13;;;;;;;57.65;28.52;;;4.60;99.90;;;;;;5117471;28;20035;-64
2023/12/13 06:48:39;;;;;;;58.00;31.33;;;4.60;99.90;;;;;;5116009;28;20032;-64
2023/12/13 06:51:06;;;;;;;67.07;31.45;;;4.60;99.90;;;;;;5115953;28;20023;-64
2023/12/13 06:53:37;;;;;;;59.97;28.85;;;4.60;99.90;;;;;;5115951;28;20057;-63
2023/12/13 06:56:03;;;;;;;58.50;27.35;;;4.60;99.90;;;;;;5117347;28;20035;-63
2023/12/13 06:58:28;;;;;;;66.95;30.73;;;4.60;99.90;;;;;;5116106;28;20027;-63
2023/12/13 07:00:54;;;;;;;68.47;31.17;;;4.60;99.90;;;;;;5115815;28;20035;-63
2023/12/13 07:03:20;;;;;;;58.25;28.52;;;4.60;99.90;;;;;;5115778;28;20023;-63
2023/12/13 07:05:46;;;;;;;75.45;29.75;;;4.60;99.90;;;;;;5115722;28;20024;-63
2023/12/13 07:08:12;;;;;;;73.20;31.08;;;4.60;99.90;;;;;;5116952;28;20389;-63
2023/12/13 07:10:38;;;;;;;54.60;28.85;;;4.70;99.90;;;;;;5116599;28;20385;-64
2023/12/13 07:13:04;;;;;;;64.30;28.92;;;4.70;99.90;;;;;;5116558;28;20027;-63
2023/12/13 07:15:30;;;;;;;65.63;29.33;;;4.70;99.90;;;;;;5115770;28;20464;-63
2023/12/13 07:17:55;;;;;;;58.35;30.60;;;4.70;99.90;;;;;;5116846;28;20028;-63
2023/12/13 07:20:21;;;;;;;59.58;29.25;;;4.70;99.90;;;;;;5115488;28;20059;-63
2023/12/13 07:22:49;;;;;;;61.92;29.30;;;4.70;99.90;;;;;;5116817;28;20135;-63
2023/12/13 07:25:15;;;;;;;60.88;29.30;;;4.70;99.90;;;;;;5114949;28;20051;-63
2023/12/13 07:27:40;;;;;;;60.05;29.63;;;4.70;99.90;;;;;;5116567;28;20471;-63
2023/12/13 07:30:07;;;;;;;58.38;28.02;;;4.70;99.90;;;;;;5116490;28;20035;-64
2023/12/13 07:32:33;;;;;;;59.67;31.42;;;4.70;99.90;;;;;;5116554;28;20023;-63
2023/12/13 07:34:59;;;;;;;63.28;31.30;;;4.70;99.90;;;;;;5116437;28;20038;-63
2023/12/13 07:37:24;;;;;;;64.40;29.95;;;4.70;99.90;;;;;;5115883;28;20028;-63
2023/12/13 07:39:50;;;;;;;68.40;30.38;;;4.70;99.90;;;;;;5116384;28;20064;-63
2023/12/13 07:42:16;;;;;;;62.92;29.48;;;4.70;99.90;;;;;;5115035;28;20427;-63
2023/12/13 07:44:43;;;;;;;62.03;27.85;;;4.70;99.90;;;;;;5114993;28;20027;-63
2023/12/13 07:47:08;;;;;;;63.47;28.52;;;4.80;99.90;;;;;;5116152;28;20076;-63
2023/12/13 07:49:36;;;;;;;64.03;29.17;;;4.80;99.90;;;;;;5114896;28;20031;-63
2023/12/13 07:52:04;;;;;;;53.38;25.17;;;4.80;99.90;;;;;;5116128;28;20023;-64
2023/12/13 07:54:29;;;;;;;56.63;26.60;;;4.90;99.90;;;;;;5114789;28;20028;-63
2023/12/13 07:56:55;;;;;;;45.50;21.02;;;5.10;99.90;;;;;;5114717;28;20548;-63
2023/12/13 07:59:21;;;;;;;22.05;10.05;;;5.20;99.90;;;;;;5115968;28;20027;-63
2023/12/13 08:01:46;;;;;;;28.58;15.15;;;5.60;99.90;;;;;;5116035;28;20024;-63
2023/12/13 08:04:12;;;;;;;13.60;8.40;;;6.20;99.90;;;;;;5116260;28;20028;-63
2023/12/13 08:06:38;;;;;;;11.27;6.88;;;6.60;99.90;;;;;;5115028;28;20027;-63
2023/12/13 08:09:03;;;;;;;8.50;5.95;;;7.00;99.90;;;;;;5114699;28;20066;-63
2023/12/13 08:11:29;;;;;;;5.95;4.90;;;7.30;99.90;;;;;;5115740;28;20500;-63
2023/12/13 08:13:55;;;;;;;7.32;5.32;;;7.40;99.90;;;;;;5115088;28;20464;-63
2023/12/13 08:16:22;;;;;;;5.85;4.35;;;7.50;99.90;;;;;;5114397;28;20035;-64
2023/12/13 08:18:48;;;;;;;6.45;4.45;;;7.60;99.90;;;;;;5114445;28;20024;-63
2023/12/13 08:21:13;;;;;;;5.63;4.10;;;7.70;99.90;;;;;;5115296;28;20094;-63
2023/12/13 08:23:39;;;;;;;4.55;3.30;;;7.70;99.90;;;;;;5114204;28;20038;-63
2023/12/13 08:26:05;;;;;;;7.03;3.92;;;7.80;99.90;;;;;;5115557;28;20047;-63
2023/12/13 08:28:30;;;;;;;5.18;3.22;;;7.90;99.90;;;;;;5115180;28;20038;-63
2023/12/13 08:30:56;;;;;;;3.78;2.50;;;7.90;99.90;;;;;;5115628;28;20372;-64
2023/12/13 08:33:22;;;;;;;4.78;2.75;;;8.00;99.90;;;;;;5114055;28;20027;-63
2023/12/13 08:35:47;;;;;;;2.25;2.05;;;8.00;99.90;;;;;;5114989;28;20384;-64
2023/12/13 08:38:13;;;;;;;2.53;2.33;;;8.00;99.90;;;;;;5115329;28;20097;-64
2023/12/13 08:40:39;;;;;;;2.53;2.33;;;8.00;99.90;;;;;;5113964;28;20031;-64
2023/12/13 08:43:04;;;;;;;3.55;2.88;;;8.10;99.90;;;;;;5115573;28;20167;-63
2023/12/13 08:45:30;;;;;;;5.95;2.70;;;8.10;99.90;;;;;;5115288;28;20028;-64
2023/12/13 08:47:56;;;;;;;2.13;1.88;;;8.20;99.90;;;;;;5115175;28;20031;-64
2023/12/13 08:50:21;;;;;;;3.42;2.67;;;8.20;99.90;;;;;;5113808;28;20479;-63
2023/12/13 08:52:47;;;;;;;2.05;1.60;;;8.20;99.90;;;;;;5114991;28;20091;-64
2023/12/13 08:55:13;;;;;;;3.25;2.20;;;8.20;99.90;;;;;;5115048;28;20027;-63
2023/12/13 08:57:38;;;;;;;2.85;2.30;;;8.30;99.90;;;;;;5113781;28;20087;-63
2023/12/13 09:00:07;;;;;;;3.00;1.77;;;8.30;99.90;;;;;;5113529;28;20035;-63
2023/12/13 09:02:33;;;;;;;;;;;8.30;99.90;;;;;;5115217;28;20061;-63
2023/12/13 09:05:00;;;;;;;2.35;1.40;;;8.40;99.90;;;;;;5114762;28;19931;-63
2023/12/13 09:07:26;;;;;;;2.67;1.38;;;8.40;99.90;;;;;;5114609;28;20465;-63
2023/12/13 09:09:51;;;;;;;3.97;1.58;;;8.50;99.90;;;;;;5114370;28;20030;-63
2023/12/13 09:12:17;;;;;;;1.75;1.35;;;8.50;99.90;;;;;;5113326;28;20027;-63
2023/12/13 09:14:43;;;;;;;3.33;1.52;;;8.60;99.90;;;;;;5114617;28;20027;-63
2023/12/13 09:17:09;;;;;;;1.48;1.00;;;8.60;99.90;;;;;;5114850;28;20034;-63
2023/12/13 09:19:34;;;;;;;4.38;1.00;;;8.60;99.90;;;;;;5114563;28;20149;-63
2023/12/13 09:22:03;;;;;;;3.55;2.22;;;8.70;99.90;;;;;;5114455;28;20129;-63
2023/12/13 09:24:29;;;;;;;2.83;1.83;;;8.70;99.90;;;;;;5112769;28;20097;-63
2023/12/13 09:26:55;;;;;;;3.33;2.30;;;8.80;99.90;;;;;;5113065;28;20043;-63
2023/12/13 09:29:21;;;;;;;2.28;1.20;;;8.80;99.90;;;;;;5114322;28;20043;-63
2023/12/13 09:31:47;;;;;;;2.65;1.48;;;8.80;99.90;;;;;;5114362;28;20019;-63
2023/12/13 09:34:13;;;;;;;2.40;1.23;;;8.90;99.90;;;;;;5114323;28;20023;-63
2023/12/13 09:36:40;;;;;;;1.60;1.08;;;8.90;99.90;;;;;;5114324;28;20080;-64
2023/12/13 09:39:06;;;;;;;1.75;0.70;;;8.90;99.90;;;;;;5114470;28;20107;-64
2023/12/13 09:41:53;;;;;;;2.00;1.55;;;9.00;99.90;;;;;;5113232;28;20024;-64
2023/12/13 09:44:22;;;;;;;5.72;1.10;;;9.10;99.90;;;;;;5114544;28;20030;-63
2023/12/13 09:46:52;;;;;;;1.40;1.08;;;9.10;99.90;;;;;;5114335;28;20032;-63
2023/12/13 09:49:17;;;;;;;;;;;9.20;99.90;;;;;;5113513;28;20027;-63
2023/12/13 09:51:45;;;;;;;1.35;0.90;;;9.20;99.90;;;;;;5114200;28;20376;-64
2023/12/13 09:54:12;;;;;;;1.48;0.85;;;9.20;99.90;;;;;;5112946;28;20023;-64
2023/12/13 09:56:38;;;;;;;1.67;0.80;;;9.20;99.90;;;;;;5114297;28;20023;-63
2023/12/13 09:59:04;;;;;;;2.17;0.60;;;9.20;99.90;;;;;;5114262;28;20020;-63
2023/12/13 10:01:29;;;;;;;1.85;0.65;;;9.30;99.90;;;;;;5115922;28;20104;-63
2023/12/13 10:03:55;;;;;;;1.70;0.80;;;9.30;99.90;;;;;;5116940;28;20019;-63
2023/12/13 10:06:21;;;;;;;1.02;0.70;;;9.30;99.90;;;;;;5116955;28;20028;-63
2023/12/13 10:08:57;;;;;;;4.88;0.98;;;9.30;99.90;;;;;;5118316;28;20034;-63
2023/12/13 10:11:23;;;;;;;2.72;1.08;;;9.30;99.90;;;;;;5118131;28;20107;-63
2023/12/13 10:13:49;;;;;;;1.63;0.50;;;9.30;99.90;;;;;;5117851;28;20098;-65
2023/12/13 10:16:15;;;;;;;4.95;0.68;;;9.30;99.90;;;;;;5116751;28;20063;-64
2023/12/13 10:18:41;;;;;;;1.60;0.82;;;9.30;99.90;;;;;;5118088;28;20030;-64
2023/12/13 10:21:08;;;;;;;5.45;0.82;;;9.30;99.90;;;;;;5117756;28;20114;-64
2023/12/13 10:23:35;;;;;;;2.15;0.60;;;9.30;99.90;;;;;;5117092;28;20031;-64
2023/12/13 10:26:02;;;;;;;1.55;1.20;;;9.30;99.90;;;;;;5117374;28;20048;-64
2023/12/13 10:28:28;;;;;;;0.73;0.50;;;9.30;99.90;;;;;;5116507;28;20555;-64
2023/12/13 10:30:53;;;;;;;2.17;1.30;;;9.30;99.90;;;;;;5116161;28;20120;-64
2023/12/13 10:33:19;;;;;;;2.05;1.40;;;9.30;99.90;;;;;;5117469;28;20019;-64
2023/12/13 10:35:46;;;;;;;2.38;1.40;;;9.30;99.90;;;;;;5117324;28;20020;-64
2023/12/13 10:38:16;;;;;;;3.35;1.40;;;9.40;99.90;;;;;;5116312;28;20058;-64
2023/12/13 10:40:43;;;;;;;3.20;2.17;;;9.40;99.90;;;;;;5117551;28;20077;-64
2023/12/13 10:43:10;;;;;;;1.88;1.08;;;9.40;99.90;;;;;;5116192;28;20034;-64
2023/12/13 10:45:43;;;;;;;3.40;1.67;;;9.40;99.90;;;;;;5117473;28;20052;-64
2023/12/13 10:48:15;;;;;;;2.92;2.03;;;9.50;99.90;;;;;;5116250;28;20464;-64
2023/12/13 10:50:44;;;;;;;4.47;1.90;;;9.50;99.90;;;;;;5117474;28;20533;-63
2023/12/13 10:53:11;;;;;;;6.33;2.00;;;9.50;99.90;;;;;;5117364;28;20020;-64
2023/12/13 10:55:39;;;;;;;1.75;1.10;;;9.50;99.90;;;;;;5117273;28;20261;-64
2023/12/13 10:58:05;;;;;;;7.40;1.30;;;9.60;99.90;;;;;;5117227;28;20028;-63
2023/12/13 11:00:32;;;;;;;4.75;1.80;;;9.60;99.90;;;;;;5117213;28;20497;-63
2023/12/13 11:03:13;;;;;;;1.83;1.20;;;9.60;99.90;;;;;;5116263;28;20077;-63
2023/12/13 11:05:39;;;;;;;1.92;1.00;;;9.70;99.90;;;;;;5115951;28;20055;-64
2023/12/13 11:08:19;;;;;;;2.67;0.95;;;9.70;99.90;;;;;;5117013;28;20459;-63
2023/12/13 11:11:04;;;;;;;4.45;0.60;;;9.70;99.90;;;;;;5115688;28;20032;-64
2023/12/13 11:13:30;;;;;;;3.58;1.38;;;9.70;99.90;;;;;;5115368;28;20024;-63
2023/12/13 11:15:57;;;;;;;2.08;0.65;;;9.60;99.90;;;;;;5116892;28;20036;-63
2023/12/13 11:18:24;;;;;;;2.60;0.88;;;9.60;99.90;;;;;;5116812;28;20055;-63
2023/12/13 11:20:55;;;;;;;5.25;1.15;;;9.60;99.90;;;;;;5116799;28;20028;-63
2023/12/13 11:23:27;;;;;;;4.30;2.28;;;9.60;99.90;;;;;;5116777;28;20020;-63
2023/12/13 11:25:55;;;;;;;1.75;1.00;;;9.60;99.90;;;;;;5114853;28;20147;-63
2023/12/13 11:28:22;;;;;;;0.75;0.60;;;9.50;99.90;;;;;;5116354;28;20447;-63
2023/12/13 11:30:48;;;;;;;2.83;0.80;;;9.50;99.90;;;;;;5115587;28;20119;-63
2023/12/13 11:33:15;;;;;;;4.93;1.50;;;9.50;99.90;;;;;;5116549;28;20066;-63
2023/12/13 11:35:41;;;;;;;4.25;1.50;;;9.50;99.90;;;;;;5116557;28;20031;-63
2023/12/13 11:38:07;;;;;;;2.60;1.40;;;9.50;99.90;;;;;;5116445;28;20036;-63
2023/12/13 11:40:33;;;;;;;4.70;1.08;;;9.60;99.90;;;;;;5116442;28;20020;-63
2023/12/13 11:42:59;;;;;;;1.05;0.95;;;9.60;99.90;;;;;;5116336;28;20023;-63
2023/12/13 11:45:25;;;;;;;3.88;1.90;;;9.60;99.90;;;;;;5116311;28;20019;-63
2023/12/13 11:47:51;;;;;;;4.65;1.90;;;9.70;99.90;;;;;;5116402;28;20028;-64
2023/12/13 11:50:19;;;;;;;12.23;4.00;;;9.70;99.90;;;;;;5116107;28;20024;-63
2023/12/13 11:52:45;;;;;;;7.20;3.67;;;9.70;99.90;;;;;;5116190;27;20024;-63
2023/12/13 11:55:11;;;;;;;8.80;3.28;;;9.80;99.90;;;;;;5114863;28;20028;-63
2023/12/13 11:57:38;;;;;;;7.45;2.92;;;9.80;99.90;;;;;;5127844;27;20433;-63
2023/12/13 12:00:05;;;;;;;8.07;2.92;;;9.80;99.90;;;;;;5136711;27;20104;-63
2023/12/13 12:02:31;;;;;;;5.72;2.60;;;9.80;99.90;;;;;;5137097;27;20479;-63
2023/12/13 12:05:06;;;;;;;7.15;2.63;;;9.70;99.90;;;;;;5136553;27;20031;-63
2023/12/13 12:07:32;;;;;;;5.47;3.10;;;9.70;99.90;;;;;;5136528;27;20107;-62
2023/12/13 12:09:59;;;;;;;10.82;3.63;;;9.70;99.90;;;;;;5136284;27;20050;-62
2023/12/13 12:12:25;;;;;;;12.32;3.97;;;9.70;99.90;;;;;;5136346;27;20019;-61
2023/12/13 12:14:51;;;;;;;4.72;2.33;;;9.70;99.90;;;;;;5134970;27;20031;-62
2023/12/13 12:17:19;;;;;;;7.65;2.20;;;9.70;99.90;;;;;;5136251;27;20031;-62
2023/12/13 12:19:45;;;;;;;13.55;9.57;;;9.60;99.90;;;;;;5136185;27;20056;-62
2023/12/13 12:22:12;;;;;;;13.48;6.10;;;9.60;99.90;;;;;;5136144;27;20474;-62
2023/12/13 12:24:38;;;;;;;5.07;4.30;;;9.50;99.90;;;;;;5134226;27;20484;-62
2023/12/13 12:27:11;;;;;;;5.03;3.20;;;9.50;99.90;;;;;;5135973;27;20084;-61
2023/12/13 12:29:38;;;;;;;8.65;3.53;;;9.50;99.90;;;;;;5134796;27;20121;-62
2023/12/13 12:32:08;;;;;;;6.45;3.22;;;9.50;99.90;;;;;;5134664;27;20084;-62
2023/12/13 12:34:40;;;;;;;5.78;2.72;;;9.40;99.90;;;;;;5134583;27;20464;-62
2023/12/13 12:37:06;;;;;;;6.03;3.22;;;9.40;99.90;;;;;;5135986;27;20085;-62
2023/12/13 12:39:33;;;;;;;8.32;4.30;;;9.40;99.90;;;;;;5134470;27;20118;-62
2023/12/13 12:41:59;;;;;;;10.05;4.03;;;9.40;99.90;;;;;;5134417;27;20023;-62